Time;durP1;ratioP1;P1;durP2;ratioP2;P2;SDS_P1;SDS_P2;PMS_P1;PMS_P2;Temp;Humidity;BMP_temperature;BMP_pressure;BME280_temperature;BME280_humidity;BME280_pressure;Samples;Min_cycle;Max_cycle;Signal;HPM_P1;HPM_P2
2021/12/09 00:00:31;;;;;;;28.03;9.30;;;;;;;-145.69;100.00;71784.47;5075055;28;20198;-75
2021/12/09 00:03:05;;;;;;;21.97;9.03;;;;;;;-145.69;100.00;71788.44;5075116;28;20612;-74
2021/12/09 00:05:32;;;;;;;22.60;8.53;;;;;;;-145.69;100.00;71788.44;5074879;28;20198;-74
2021/12/09 00:07:59;;;;;;;27.00;10.00;;;;;;;-145.69;100.00;71792.44;5075043;28;20227;-74
2021/12/09 00:10:26;;;;;;;21.90;8.53;;;;;;;-145.69;100.00;71792.44;5074738;28;20554;-74
2021/12/09 00:12:52;;;;;;;22.93;9.13;;;;;;;-145.69;100.00;71792.44;5074902;28;20203;-74
2021/12/09 00:15:19;;;;;;;40.93;11.70;;;;;;;-145.69;100.00;71790.44;5074770;28;20324;-74
2021/12/09 00:17:45;;;;;;;43.93;10.80;;;;;;;-145.69;100.00;71792.44;5074772;28;20271;-74
2021/12/09 00:20:13;;;;;;;52.27;14.80;;;;;;;-145.69;100.00;71796.41;5074284;28;20335;-73
2021/12/09 00:22:40;;;;;;;25.73;10.57;;;;;;;-145.69;100.00;71800.38;5074767;28;20260;-74
2021/12/09 00:25:07;;;;;;;18.57;8.33;;;;;;;-145.69;100.00;71796.41;5074330;28;20207;-73
2021/12/09 00:27:33;;;;;;;19.80;8.37;;;;;;;-145.69;100.00;71798.41;5074569;28;20234;-73
2021/12/09 00:30:00;;;;;;;21.43;7.20;;;;;;;-145.69;100.00;71786.47;5074550;28;20194;-73
2021/12/09 00:32:26;;;;;;;16.37;6.77;;;;;;;-145.69;100.00;71792.44;5074462;28;20256;-73
2021/12/09 00:34:53;;;;;;;22.07;7.90;;;;;;;-145.69;100.00;71802.38;5074246;28;20209;-74
2021/12/09 00:37:27;;;;;;;15.77;6.77;;;;;;;-145.69;100.00;71796.41;5074223;28;20661;-73
2021/12/09 00:39:54;;;;;;;24.77;8.03;;;;;;;-145.69;100.00;71804.38;5074405;28;20202;-73
2021/12/09 00:42:22;;;;;;;20.13;7.23;;;;;;;-145.69;100.00;71800.38;5074357;28;20206;-73
2021/12/09 00:44:48;;;;;;;15.80;6.57;;;;;;;-145.69;100.00;71804.38;5073819;28;20240;-73
2021/12/09 00:47:15;;;;;;;19.13;7.60;;;;;;;-145.69;100.00;71804.38;5073797;28;20222;-73
2021/12/09 00:49:43;;;;;;;16.37;5.90;;;;;;;-145.69;100.00;71798.41;5074233;28;20198;-73
2021/12/09 00:52:09;;;;;;;19.43;6.37;;;;;;;-145.69;100.00;71804.38;5073959;28;20210;-73
2021/12/09 00:54:38;;;;;;;10.17;5.37;;;;;;;-145.69;100.00;71796.41;5073723;28;20250;-73
2021/12/09 00:57:05;;;;;;;15.63;5.97;;;;;;;-145.69;100.00;71800.38;5073965;28;20202;-73
2021/12/09 00:59:32;;;;;;;15.10;7.07;;;;;;;-145.69;100.00;71806.34;5073730;28;20198;-73
2021/12/09 01:01:58;;;;;;;20.13;7.67;;;;;;;-145.69;100.00;71800.38;5062715;28;20203;-73
2021/12/09 01:04:25;;;;;;;21.90;8.00;;;;;;;-145.69;100.00;71818.31;5053897;28;20211;-73
2021/12/09 01:06:52;;;;;;;25.07;9.23;;;;;;;-145.69;100.00;71820.28;5053753;28;20203;-73
2021/12/09 01:09:19;;;;;;;22.13;8.23;;;;;;;-145.69;100.00;71812.31;5055051;28;20235;-73
2021/12/09 01:11:47;;;;;;;26.00;9.73;;;;;;;-145.69;100.00;71818.31;5073730;28;20202;-73
2021/12/09 01:14:13;;;;;;;18.17;9.33;;;;;;;-145.69;100.00;71818.31;5073459;28;20203;-73
2021/12/09 01:16:40;;;;;;;23.70;9.03;;;;;;;-145.69;100.00;71816.31;5073522;28;20203;-73
2021/12/09 01:19:07;;;;;;;27.93;10.30;;;;;;;-145.69;100.00;71810.34;5073627;28;20199;-73
2021/12/09 01:21:33;;;;;;;23.77;9.17;;;;;;;-145.69;100.00;71816.31;5073561;28;20203;-73
2021/12/09 01:24:00;;;;;;;26.20;10.30;;;;;;;-145.69;100.00;71816.31;5073325;28;20585;-73
2021/12/09 01:26:28;;;;;;;23.23;10.10;;;;;;;-145.69;100.00;71818.31;5073418;28;20206;-73
2021/12/09 01:29:00;;;;;;;27.33;10.43;;;;;;;-145.69;100.00;71824.25;5073221;28;20233;-73
2021/12/09 01:31:31;;;;;;;28.90;10.00;;;;;;;-145.69;100.00;71816.31;5073483;28;20213;-72
2021/12/09 01:34:01;;;;;;;30.47;10.57;;;;;;;-145.69;100.00;71824.25;5073402;28;20195;-73
2021/12/09 01:36:28;;;;;;;29.13;11.10;;;;;;;-145.69;100.00;71824.25;5072275;28;20201;-73
2021/12/09 01:38:55;;;;;;;27.03;10.50;;;;;;;-145.69;100.00;71824.25;5073273;28;20210;-72
2021/12/09 01:41:21;;;;;;;18.73;8.33;;;;;;;-145.69;100.00;71812.31;5073145;28;20294;-72
2021/12/09 01:43:50;;;;;;;23.97;9.40;;;;;;;-145.69;100.00;71820.28;5073440;28;20207;-73
2021/12/09 01:46:21;;;;;;;19.60;8.00;;;;;;;-145.69;100.00;71820.28;5073177;28;20194;-73
2021/12/09 01:48:49;;;;;;;20.63;9.07;;;;;;;-145.69;100.00;71824.25;5072944;28;20268;-73
2021/12/09 01:51:17;;;;;;;19.27;8.30;;;;;;;-145.69;100.00;71828.25;5073150;28;20206;-72
2021/12/09 01:53:44;;;;;;;17.03;8.07;;;;;;;-145.69;100.00;71832.22;5070424;28;20613;-73
2021/12/09 01:56:14;;;;;;;21.07;9.30;;;;;;;-145.69;100.00;71838.19;5052846;28;20211;-73
2021/12/09 01:58:41;;;;;;;20.30;8.30;;;;;;;-145.69;100.00;71842.19;5053089;28;20204;-73
2021/12/09 02:01:08;;;;;;;18.63;8.20;;;;;;;-145.69;100.00;71844.16;5065915;28;20195;-73
2021/12/09 02:03:36;;;;;;;17.57;7.23;;;;;;;-145.69;100.00;71852.13;5072906;28;20653;-73
2021/12/09 02:06:03;;;;;;;18.57;8.07;;;;;;;-145.69;100.00;71852.13;5072858;28;20198;-73
2021/12/09 02:08:30;;;;;;;20.30;9.13;;;;;;;-145.69;100.00;71854.13;5072742;28;20234;-73
2021/12/09 02:10:56;;;;;;;19.13;7.97;;;;;;;-145.69;100.00;71870.03;5073029;28;20256;-73
2021/12/09 02:13:23;;;;;;;21.97;9.47;;;;;;;-145.69;100.00;71876.00;5072801;28;20257;-73
2021/12/09 02:15:52;;;;;;;22.57;9.33;;;;;;;-145.69;100.00;71876.00;5072912;28;20203;-73
2021/12/09 02:18:20;;;;;;;23.10;8.83;;;;;;;-145.69;100.00;71880.00;5072850;28;20203;-73
2021/12/09 02:21:05;;;;;;;24.80;9.50;;;;;;;-145.69;100.00;71880.00;5072814;28;20282;-73
2021/12/09 02:23:31;;;;;;;17.70;7.93;;;;;;;-145.69;100.00;71883.97;5072372;28;20588;-73
2021/12/09 02:25:57;;;;;;;17.97;7.93;;;;;;;-145.69;100.00;71881.97;5072385;28;20214;-73
2021/12/09 02:28:26;;;;;;;17.23;7.30;;;;;;;-145.69;100.00;71881.97;5072692;28;20252;-73
2021/12/09 02:30:53;;;;;;;18.33;8.17;;;;;;;-145.69;100.00;71880.00;5072627;28;20605;-73
2021/12/09 02:33:19;;;;;;;19.10;7.23;;;;;;;-145.69;100.00;71876.00;5072611;28;20675;-73
2021/12/09 02:35:47;;;;;;;17.90;8.07;;;;;;;-145.69;100.00;71880.00;5072513;28;20203;-73
2021/12/09 02:38:14;;;;;;;15.63;7.23;;;;;;;-145.69;100.00;71880.00;5072759;28;20241;-73
2021/12/09 02:40:41;;;;;;;16.03;6.43;;;;;;;-145.69;100.00;71878.00;5072736;28;20198;-73
2021/12/09 02:43:08;;;;;;;21.60;6.20;;;;;;;-145.69;100.00;71874.03;5072690;28;20204;-73
2021/12/09 02:45:35;;;;;;;13.47;6.40;;;;;;;-145.69;100.00;71868.06;5072548;28;20205;-73
2021/12/09 02:48:01;;;;;;;13.27;5.73;;;;;;;-145.69;100.00;71876.00;5073750;28;20693;-73
2021/12/09 02:50:28;;;;;;;18.33;6.57;;;;;;;-145.69;100.00;71883.97;5076098;28;20198;-73
2021/12/09 02:52:56;;;;;;;14.53;6.27;;;;;;;-145.69;100.00;71881.97;5056241;28;20594;-73
2021/12/09 02:55:22;;;;;;;14.27;5.70;;;;;;;-145.69;100.00;71880.00;5056459;28;20200;-73
2021/12/09 02:57:51;;;;;;;16.60;5.80;;;;;;;-145.69;100.00;71876.00;5056324;28;20207;-73
2021/12/09 03:00:20;;;;;;;18.97;6.47;;;;;;;-145.69;100.00;71874.03;5062632;28;20726;-73
2021/12/09 03:02:47;;;;;;;18.53;7.00;;;;;;;-145.69;100.00;71864.06;5076031;28;20198;-73
2021/12/09 03:05:13;;;;;;;17.73;6.87;;;;;;;-145.69;100.00;71872.03;5076213;28;20252;-73
2021/12/09 03:07:41;;;;;;;20.23;7.10;;;;;;;-145.69;100.00;71872.03;5075903;28;20252;-73
2021/12/09 03:10:18;;;;;;;20.30;8.67;;;;;;;-145.69;100.00;71872.03;5075902;28;20206;-73
2021/12/09 03:12:45;;;;;;;42.77;10.97;;;;;;;-145.69;100.00;71874.03;5076041;28;20666;-73
2021/12/09 03:15:11;;;;;;;32.20;11.27;;;;;;;-145.69;100.00;71864.06;5075806;28;20565;-73
2021/12/09 03:17:40;;;;;;;31.93;11.47;;;;;;;-145.69;100.00;71872.03;5076073;28;20256;-73
2021/12/09 03:20:09;;;;;;;66.80;11.37;;;;;;;-145.69;100.00;71868.06;5075853;28;20281;-73
2021/12/09 03:22:36;;;;;;;63.10;15.50;;;;;;;-145.69;100.00;71880.00;5075392;28;20491;-73
2021/12/09 03:25:03;;;;;;;29.57;10.63;;;;;;;-145.69;100.00;71874.03;5075793;28;20271;-73
2021/12/09 03:27:31;;;;;;;26.83;10.20;;;;;;;-145.69;100.00;71880.00;5075739;28;20195;-73
2021/12/09 03:29:57;;;;;;;32.47;10.83;;;;;;;-145.69;100.00;71891.94;5075231;28;20739;-73
2021/12/09 03:32:24;;;;;;;40.60;11.73;;;;;;;-145.69;100.00;71889.94;5075812;28;20207;-73
2021/12/09 03:34:51;;;;;;;35.53;12.40;;;;;;;-145.69;100.00;71899.88;5075496;28;20662;-73
2021/12/09 03:37:20;;;;;;;45.10;12.13;;;;;;;-145.69;100.00;71891.94;5075560;28;20203;-73
2021/12/09 03:39:48;;;;;;;43.93;11.87;;;;;;;-145.69;100.00;71893.91;5075534;28;20206;-73
2021/12/09 03:42:17;;;;;;;32.13;11.87;;;;;;;-145.69;100.00;71899.88;5075420;28;20210;-73
2021/12/09 03:44:47;;;;;;;33.77;10.77;;;;;;;-145.69;100.00;71891.94;5075631;28;20252;-73
2021/12/09 03:47:15;;;;;;;28.83;9.20;;;;;;;-145.69;100.00;71881.97;5075211;28;20608;-73
2021/12/09 03:49:43;;;;;;;27.60;8.87;;;;;;;-145.69;100.00;71885.97;5075251;28;20284;-73
2021/12/09 03:52:10;;;;;;;31.83;9.40;;;;;;;-145.69;100.00;71891.94;5071691;28;20194;-73
2021/12/09 03:54:36;;;;;;;19.37;7.70;;;;;;;-145.69;100.00;71885.97;5054907;28;20714;-74
2021/12/09 03:57:04;;;;;;;18.93;7.33;;;;;;;-145.69;100.00;71895.91;5055002;28;20204;-73
2021/12/09 03:59:31;;;;;;;21.57;8.27;;;;;;;-145.69;100.00;71893.91;5054517;28;20226;-73
2021/12/09 04:01:58;;;;;;;23.30;7.47;;;;;;;-145.69;100.00;71895.91;5070704;28;20218;-72
2021/12/09 04:04:25;;;;;;;22.37;8.10;;;;;;;-145.69;100.00;71899.88;5075101;28;20194;-73
2021/12/09 04:06:54;;;;;;;21.23;8.83;;;;;;;-145.69;100.00;71907.84;5074943;28;20592;-73
2021/12/09 04:09:22;;;;;;;20.13;8.30;;;;;;;-145.69;100.00;71905.88;5074507;28;20222;-73
2021/12/09 04:11:49;;;;;;;21.83;7.40;;;;;;;-145.69;100.00;71901.88;5074996;28;20217;-73
2021/12/09 04:14:16;;;;;;;24.47;7.27;;;;;;;-145.69;100.00;71899.88;5074745;28;20671;-73
2021/12/09 04:16:43;;;;;;;19.93;5.93;;;;;;;-145.69;100.00;71911.84;5074872;28;20206;-73
2021/12/09 04:19:12;;;;;;;17.63;5.67;;;;;;;-145.69;100.00;71911.84;5074662;28;20260;-73
2021/12/09 04:21:39;;;;;;;17.20;5.63;;;;;;;-145.69;100.00;71913.81;5074688;28;20677;-73
2021/12/09 04:24:07;;;;;;;14.00;5.90;;;;;;;-145.69;100.00;71913.81;5074458;28;20195;-73
2021/12/09 04:26:34;;;;;;;17.03;5.27;;;;;;;-145.69;100.00;71919.78;5074732;28;20210;-73
2021/12/09 04:29:00;;;;;;;17.43;5.77;;;;;;;-145.69;100.00;71919.78;5074576;28;20226;-73
2021/12/09 04:31:27;;;;;;;20.10;5.60;;;;;;;-145.69;100.00;71907.84;5074577;28;20198;-73
2021/12/09 04:33:53;;;;;;;12.90;4.53;;;;;;;-145.69;100.00;71915.81;5074286;28;20260;-73
2021/12/09 04:36:23;;;;;;;16.03;5.50;;;;;;;-145.69;100.00;71919.78;5074300;28;20202;-73
2021/12/09 04:38:50;;;;;;;14.73;5.20;;;;;;;-145.69;100.00;71931.72;5074554;28;20206;-73
2021/12/09 04:41:17;;;;;;;16.47;6.00;;;;;;;-145.69;100.00;71933.72;5074424;28;20203;-73
2021/12/09 04:43:44;;;;;;;16.83;5.20;;;;;;;-145.69;100.00;71929.75;5074322;28;20260;-73
2021/12/09 04:46:11;;;;;;;19.57;5.53;;;;;;;-145.69;100.00;71917.81;5074211;28;20248;-73
2021/12/09 04:48:37;;;;;;;15.00;5.13;;;;;;;-145.69;100.00;71923.78;5074018;28;20226;-73
2021/12/09 04:51:04;;;;;;;15.73;5.57;;;;;;;-145.69;100.00;71929.75;5073995;28;20649;-73
2021/12/09 04:53:33;;;;;;;12.73;5.27;;;;;;;-145.69;100.00;71935.72;5073565;28;20227;-73
2021/12/09 04:56:00;;;;;;;30.80;8.20;;;;;;;-145.69;100.00;71935.72;5074125;28;20257;-73
2021/12/09 04:58:27;;;;;;;21.57;5.83;;;;;;;-145.69;100.00;71939.69;5073792;28;20195;-74
2021/12/09 05:00:56;;;;;;;19.63;6.47;;;;;;;-145.69;100.00;71949.66;5073962;28;20202;-73
2021/12/09 05:03:23;;;;;;;22.10;6.47;;;;;;;-145.69;100.00;71955.63;5073784;28;20206;-73
2021/12/09 05:05:53;;;;;;;20.37;7.80;;;;;;;-145.69;100.00;71963.56;5073693;28;20206;-73
2021/12/09 05:08:22;;;;;;;19.70;7.47;;;;;;;-145.69;100.00;71965.56;5073831;28;20203;-73
2021/12/09 05:10:59;;;;;;;24.80;8.67;;;;;;;-145.69;100.00;71975.50;5073185;28;20248;-73
2021/12/09 05:13:28;;;;;;;26.50;7.57;;;;;;;-145.69;100.00;71971.53;5073221;28;20194;-73
2021/12/09 05:15:56;;;;;;;17.07;6.77;;;;;;;-145.69;100.00;71979.50;5073543;28;20600;-73
2021/12/09 05:18:25;;;;;;;19.03;6.07;;;;;;;-145.69;100.00;71975.50;5073465;28;20252;-73
2021/12/09 05:20:52;;;;;;;21.27;7.43;;;;;;;-145.69;100.00;71983.47;5073689;28;20236;-73
2021/12/09 05:23:20;;;;;;;18.80;6.87;;;;;;;-145.69;100.00;71985.47;5073364;28;20187;-73
2021/12/09 05:25:47;;;;;;;15.27;6.60;;;;;;;-145.69;100.00;71985.47;5073530;28;20194;-73
2021/12/09 05:28:17;;;;;;;16.87;6.20;;;;;;;-145.69;100.00;71987.47;5073356;28;20203;-73
2021/12/09 05:33:24;;;;;;;15.53;5.03;;;;;;;-145.69;100.00;71987.47;5073128;28;20190;-73
2021/12/09 05:35:51;;;;;;;18.77;5.30;;;;;;;-145.69;100.00;71993.44;5073351;28;20207;-73
2021/12/09 05:38:17;;;;;;;11.43;5.40;;;;;;;-145.69;100.00;71995.41;5073307;28;20199;-73
2021/12/09 05:40:44;;;;;;;26.57;5.60;;;;;;;-145.69;100.00;71981.50;5073194;28;20206;-73
2021/12/09 05:43:11;;;;;;;20.90;5.30;;;;;;;-145.69;100.00;71979.50;5073131;28;20207;-73
2021/12/09 05:45:38;;;;;;;19.10;5.90;;;;;;;-145.69;100.00;71983.47;5073040;28;20646;-73
2021/12/09 05:48:07;;;;;;;25.90;5.43;;;;;;;-145.69;100.00;71985.47;5073130;28;20199;-73
2021/12/09 05:50:34;;;;;;;13.00;4.33;;;;;;;-145.69;100.00;71983.47;5056312;28;20318;-73
2021/12/09 05:53:00;;;;;;;15.57;4.50;;;;;;;-145.69;100.00;71991.44;5052786;28;20227;-73
2021/12/09 05:55:27;;;;;;;26.37;5.20;;;;;;;-145.69;100.00;71989.44;5052894;28;20685;-73
2021/12/09 05:57:53;;;;;;;16.40;5.80;;;;;;;-145.69;100.00;71997.41;5052855;28;20203;-73
2021/12/09 06:00:20;;;;;;;17.80;6.43;;;;;;;-145.69;100.00;71995.41;5052781;28;20203;-73
2021/12/09 06:02:48;;;;;;;18.60;6.70;;;;;;;-145.69;100.00;71999.41;5053026;28;20199;-73
2021/12/09 06:05:14;;;;;;;18.00;6.33;;;;;;;-145.69;100.00;72003.38;5052952;28;20199;-73
2021/12/09 06:07:41;;;;;;;16.03;7.10;;;;;;;-145.69;100.00;72003.38;5052917;28;20207;-73
2021/12/09 06:10:09;;;;;;;20.80;6.77;;;;;;;-145.69;100.00;72015.31;5052653;28;20285;-73
2021/12/09 06:12:36;;;;;;;14.37;6.30;;;;;;;-145.69;100.00;72009.34;5061954;28;20195;-74
2021/12/09 06:15:03;;;;;;;23.53;7.60;;;;;;;-145.69;100.00;72015.31;5072893;28;20238;-73
2021/12/09 06:17:30;;;;;;;15.53;6.03;;;;;;;-145.69;100.00;72015.31;5072928;28;20244;-73
2021/12/09 06:19:58;;;;;;;21.00;5.90;;;;;;;-145.69;100.00;72013.31;5072806;28;20249;-73
2021/12/09 06:22:24;;;;;;;14.80;5.97;;;;;;;-145.69;100.00;72021.28;5073111;28;20225;-73
2021/12/09 06:24:50;;;;;;;24.10;8.63;;;;;;;-145.69;100.00;72015.31;5076817;28;20203;-73
2021/12/09 06:27:17;;;;;;;22.10;9.00;;;;;;;-145.69;100.00;72009.34;5076857;28;20677;-73
2021/12/09 06:29:43;;;;;;;37.40;11.30;;;;;;;-145.69;100.00;72017.31;5076853;28;20296;-73
2021/12/09 06:32:11;;;;;;;36.63;12.27;;;;;;;-145.69;100.00;72015.31;5076888;28;20592;-73
2021/12/09 06:34:38;;;;;;;30.43;8.90;;;;;;;-145.69;100.00;72015.31;5076668;28;20195;-73
2021/12/09 06:37:06;;;;;;;12.00;5.63;;;;;;;-145.69;100.00;71999.41;5076412;28;20195;-73
2021/12/09 06:39:32;;;;;;;21.77;6.97;;;;;;;-145.69;100.00;72017.31;5076561;28;20214;-73
2021/12/09 06:41:59;;;;;;;22.47;7.27;;;;;;;-145.69;100.00;72015.31;5076745;28;20202;-73
2021/12/09 06:44:25;;;;;;;15.33;6.87;;;;;;;-145.69;100.00;72023.28;5076703;28;20248;-73
2021/12/09 06:46:52;;;;;;;27.57;9.73;;;;;;;-145.69;100.00;72023.28;5076442;28;20653;-73
2021/12/09 06:49:18;;;;;;;30.20;9.13;;;;;;;-145.69;100.00;72023.28;5076335;28;20226;-73
2021/12/09 06:51:44;;;;;;;21.00;8.73;;;;;;;-145.69;100.00;72025.28;5076383;28;20247;-73
2021/12/09 06:54:12;;;;;;;33.43;11.67;;;;;;;-145.69;100.00;72023.28;5076086;28;20230;-73
2021/12/09 06:56:39;;;;;;;24.27;8.90;;;;;;;-145.69;100.00;72027.25;5076424;28;20203;-73
2021/12/09 06:59:05;;;;;;;29.00;10.17;;;;;;;-145.69;100.00;72023.28;5076222;28;20649;-73
2021/12/09 07:01:32;;;;;;;28.33;9.47;;;;;;;-145.69;100.00;72021.28;5076011;28;20195;-73
2021/12/09 07:03:58;;;;;;;20.80;8.90;;;;;;;-145.69;100.00;72013.31;5076141;28;20202;-73
2021/12/09 07:06:26;;;;;;;18.07;6.47;;;;;;;-145.69;100.00;72011.34;5075913;28;20210;-73
2021/12/09 07:08:54;;;;;;;24.20;9.27;;;;;;;-145.69;100.00;72017.31;5076143;28;20281;-73
2021/12/09 07:11:22;;;;;;;20.33;7.33;;;;;;;-145.69;100.00;72015.31;5076077;28;20203;-73
2021/12/09 07:13:49;;;;;;;20.93;6.30;;;;;;;-145.69;100.00;72007.34;5076041;28;20199;-73
2021/12/09 07:16:16;;;;;;;15.10;5.33;;;;;;;-145.69;100.00;72009.34;5075995;28;20198;-73
2021/12/09 07:18:42;;;;;;;18.57;6.93;;;;;;;-145.69;100.00;72015.31;5075803;28;20195;-74
2021/12/09 07:21:10;;;;;;;16.63;5.93;;;;;;;-145.69;100.00;72011.34;5075791;28;20548;-74
2021/12/09 07:23:36;;;;;;;17.20;5.10;;;;;;;-145.69;100.00;72017.31;5075930;28;20199;-73
2021/12/09 07:26:03;;;;;;;22.33;5.90;;;;;;;-145.69;100.00;72015.31;5075613;28;20245;-73
2021/12/09 07:28:31;;;;;;;20.00;7.10;;;;;;;-145.69;100.00;72019.31;5075787;28;20206;-74
2021/12/09 07:30:58;;;;;;;18.63;7.57;;;;;;;-145.69;100.00;72021.28;5075564;28;20222;-73
2021/12/09 07:33:24;;;;;;;21.77;7.30;;;;;;;-145.69;100.00;72027.25;5075493;28;20249;-74
2021/12/09 07:35:51;;;;;;;19.30;7.73;;;;;;;-145.69;100.00;72033.22;5074425;28;20814;-73
2021/12/09 07:38:17;;;;;;;19.37;7.20;;;;;;;-145.69;100.00;72035.22;5075561;28;20256;-74
2021/12/09 07:40:44;;;;;;;17.80;7.47;;;;;;;-145.69;100.00;72039.19;5075429;28;20203;-74
2021/12/09 07:43:11;;;;;;;24.63;8.43;;;;;;;-145.69;100.00;72031.25;5075391;28;20205;-74
2021/12/09 07:45:38;;;;;;;25.93;8.77;;;;;;;-145.69;100.00;72041.19;5060102;28;20662;-73
2021/12/09 07:48:05;;;;;;;19.70;7.07;;;;;;;-145.69;100.00;72047.16;5066611;28;20202;-74
2021/12/09 07:50:33;;;;;;;23.10;7.57;;;;;;;-145.69;100.00;72047.16;5075147;28;20237;-74
2021/12/09 07:53:00;;;;;;;8.87;3.90;;;;;;;-145.69;100.00;72051.16;5075135;28;20317;-74
2021/12/09 07:55:27;;;;;;;8.43;3.70;;;;;;;-145.69;100.00;72061.09;5075279;28;20206;-74
2021/12/09 07:57:54;;;;;;;6.60;3.53;;;;;;;-145.69;100.00;72063.09;5075170;28;20206;-74
2021/12/09 08:00:24;;;;;;;6.77;3.77;;;;;;;-145.69;100.00;72063.09;5075084;28;20230;-74
2021/12/09 08:02:52;;;;;;;4.77;2.77;;;;;;;-145.69;100.00;72071.03;5074650;28;20198;-74
2021/12/09 08:05:20;;;;;;;7.83;4.20;;;;;;;-145.69;100.00;72063.09;5075104;28;20257;-74
2021/12/09 08:07:46;;;;;;;6.73;3.47;;;;;;;-145.69;100.00;72067.06;5075093;28;20203;-74
2021/12/09 08:10:15;;;;;;;7.50;3.13;;;;;;;-145.69;100.00;72071.03;5074877;28;20222;-73
2021/12/09 08:12:43;;;;;;;6.83;2.80;;;;;;;-145.69;100.00;72075.03;5074888;28;20202;-73
2021/12/09 08:15:11;;;;;;;9.20;3.97;;;;;;;-145.69;100.00;72077.00;5074616;28;20199;-74
2021/12/09 08:18:01;;;;;;;15.70;6.63;;;;;;;-145.69;100.00;72063.09;5074949;28;20202;-73
2021/12/09 08:20:30;;;;;;;29.73;16.00;;;;;;;-145.69;100.00;72043.19;5074928;28;20234;-73
2021/12/09 08:22:56;;;;;;;52.13;28.27;;;;;;;-145.69;100.00;72047.16;5074760;28;20205;-73
2021/12/09 08:25:24;;;;;;;18.63;11.00;;;;;;;-145.69;100.00;72043.19;5074437;28;20202;-74
2021/12/09 08:27:51;;;;;;;14.23;11.03;;;;;;;-145.69;100.00;72047.16;5074428;28;20198;-73
2021/12/09 08:30:20;;;;;;;8.77;3.87;;;;;;;-145.69;100.00;72055.13;5074386;28;20720;-74
2021/12/09 08:32:47;;;;;;;7.33;3.03;;;;;;;-145.69;100.00;72061.09;5074585;28;20203;-74
2021/12/09 08:35:15;;;;;;;8.67;3.23;;;;;;;-145.69;100.00;72051.16;5074483;28;20195;-74
2021/12/09 08:37:44;;;;;;;5.32;3.70;;;;;;;-145.69;100.00;72037.22;5073516;28;20430;-75
2021/12/09 08:40:12;;;;;;;3.47;2.77;;;;;;;-145.69;100.00;72027.25;5074262;28;20225;-74
2021/12/09 08:42:38;;;;;;;5.27;2.60;;;;;;;-145.69;100.00;72021.28;5074446;28;20195;-74
2021/12/09 08:45:09;;;;;;;6.10;3.00;;;;;;;-145.69;100.00;72027.25;5074303;28;20210;-75
2021/12/09 08:47:35;;;;;;;4.00;2.70;;;;;;;-145.69;100.00;72033.22;5073876;28;20294;-74
2021/12/09 08:50:02;;;;;;;8.87;3.47;;;;;;;-145.69;100.00;72037.22;5074117;28;20268;-74
2021/12/09 08:52:28;;;;;;;21.30;6.60;;;;;;;-145.69;100.00;72051.16;5073742;28;20654;-74
2021/12/09 08:54:56;;;;;;;21.67;7.50;;;;;;;-145.69;100.00;72047.16;5073914;28;20198;-74
2021/12/09 08:57:23;;;;;;;19.93;8.10;;;;;;;-145.69;100.00;72041.19;5074201;28;20248;-75
2021/12/09 08:59:49;;;;;;;15.87;6.33;;;;;;;-145.69;100.00;72031.25;5073976;28;20203;-74
2021/12/09 09:02:16;;;;;;;17.30;6.90;;;;;;;-145.69;100.00;72031.25;5073922;28;20207;-74
2021/12/09 09:04:43;;;;;;;21.60;6.40;;;;;;;-145.69;100.00;72035.22;5073907;28;20256;-74
2021/12/09 09:07:09;;;;;;;16.13;6.53;;;;;;;-145.69;100.00;72035.22;5073692;28;20198;-74
2021/12/09 09:09:38;;;;;;;15.93;5.73;;;;;;;-145.69;100.00;72025.28;5073965;28;20623;-74
2021/12/09 09:12:08;;;;;;;14.57;5.23;;;;;;;-145.69;100.00;72003.38;5073558;28;20605;-74
2021/12/09 09:14:36;;;;;;;8.87;4.80;;;;;;;-145.69;100.00;72003.38;5073330;28;20198;-74
2021/12/09 09:17:02;;;;;;;14.17;4.90;;;;;;;-145.69;100.00;72019.31;5073293;28;20248;-75
2021/12/09 09:19:29;;;;;;;17.00;5.63;;;;;;;-145.69;100.00;72017.31;5073434;28;20604;-75
2021/12/09 09:21:56;;;;;;;16.43;5.67;;;;;;;-145.69;100.00;72021.28;5073081;28;20195;-73
2021/12/09 09:24:23;;;;;;;16.63;5.90;;;;;;;-145.69;100.00;72013.31;5073737;28;20198;-73
2021/12/09 09:26:49;;;;;;;12.27;5.17;;;;;;;-145.69;100.00;71989.44;5073501;28;20202;-73
2021/12/09 09:29:17;;;;;;;10.63;5.30;;;;;;;-145.69;100.00;71967.56;5073335;28;20664;-74
2021/12/09 09:31:44;;;;;;;13.70;4.80;;;;;;;-145.69;100.00;71993.44;5073309;28;20321;-73
2021/12/09 09:34:11;;;;;;;13.73;5.53;;;;;;;-145.69;100.00;72011.34;5073232;28;20551;-73
2021/12/09 09:36:44;;;;;;;13.37;5.20;;;;;;;-145.69;100.00;72025.28;5073192;28;20638;-73
2021/12/09 09:39:17;;;;;;;16.77;6.87;;;;;;;-145.69;100.00;72035.22;5073373;28;20294;-73
2021/12/09 09:41:45;;;;;;;9.77;3.83;;;;;;;-145.69;100.00;72041.19;5073233;28;20548;-73
2021/12/09 09:44:15;;;;;;;10.90;4.67;;;;;;;-145.69;100.00;72035.22;5070785;28;20218;-74
2021/12/09 09:46:44;;;;;;;15.40;6.53;;;;;;;-145.69;100.00;72041.19;5053049;28;20231;-74
2021/12/09 09:49:12;;;;;;;12.27;4.77;;;;;;;-145.69;100.00;72055.13;5051841;28;20210;-74
2021/12/09 09:51:39;;;;;;;13.07;4.97;;;;;;;-145.69;100.00;72039.19;5052676;28;20227;-73
2021/12/09 09:54:06;;;;;;;7.03;3.67;;;;;;;-145.69;100.00;72035.22;5052941;28;20242;-74
2021/12/09 09:56:34;;;;;;;7.40;3.93;;;;;;;-145.69;100.00;72039.19;5052545;28;20291;-73
2021/12/09 09:59:05;;;;;;;9.60;3.73;;;;;;;-145.69;100.00;72023.28;5050379;28;20207;-74
2021/12/09 10:01:35;;;;;;;7.63;3.77;;;;;;;-145.69;100.00;71991.44;5050910;28;20393;-73
2021/12/09 10:04:13;;;;;;;8.97;3.40;;;;;;;-145.69;100.00;71981.50;5050930;28;20704;-74
2021/12/09 10:06:42;;;;;;;7.17;3.50;;;;;;;-145.69;100.00;71955.63;5051136;28;20199;-74
2021/12/09 10:09:10;;;;;;;9.07;3.70;;;;;;;-145.69;100.00;71923.78;5054807;28;20244;-74
2021/12/09 10:11:37;;;;;;;10.37;3.60;;;;;;;-145.69;100.00;71939.69;5070586;28;20222;-74
2021/12/09 10:14:13;;;;;;;9.97;3.57;;;;;;;-145.69;100.00;71935.72;5072567;28;20198;-74
2021/12/09 10:16:41;;;;;;;10.20;3.87;;;;;;;-145.69;100.00;71931.72;5072708;28;20665;-74
2021/12/09 10:19:21;;;;;;;8.60;3.20;;;;;;;-145.69;100.00;71923.78;5072861;28;20225;-74
2021/12/09 10:21:49;;;;;;;13.30;3.43;;;;;;;-145.69;100.00;71887.94;5072860;28;20202;-74
2021/12/09 10:24:17;;;;;;;5.17;2.60;;;;;;;-145.69;100.00;71887.94;5072621;28;20199;-74
2021/12/09 10:26:46;;;;;;;5.37;3.60;;;;;;;-145.69;100.00;71911.84;5072676;28;20653;-74
2021/12/09 10:29:18;;;;;;;5.13;2.47;;;;;;;-145.69;100.00;71923.78;5072528;28;20564;-74
2021/12/09 10:31:49;;;;;;;7.80;1.80;;;;;;;-145.69;100.00;71917.81;5072735;28;20222;-74
2021/12/09 10:34:33;;;;;;;5.17;1.93;;;;;;;-145.69;100.00;71947.66;5072436;28;20202;-74
2021/12/09 10:37:05;;;;;;;8.10;1.47;;;;;;;-145.69;100.00;71953.63;5052458;28;20287;-74
2021/12/09 10:39:36;;;;;;;3.37;1.67;;;;;;;-145.69;100.00;71963.56;5052698;28;20294;-74
2021/12/09 10:42:06;;;;;;;5.27;1.60;;;;;;;-145.69;100.00;71959.59;5052709;28;20260;-73
2021/12/09 10:44:36;;;;;;;4.80;1.90;;;;;;;-145.69;100.00;71963.56;5052574;28;20214;-73
2021/12/09 10:47:09;;;;;;;5.43;1.70;;;;;;;-145.69;100.00;71963.56;5052528;28;20203;-74
2021/12/09 10:49:47;;;;;;;5.57;1.97;;;;;;;-145.69;100.00;71959.59;5052413;28;20616;-73
2021/12/09 10:52:28;;;;;;;3.73;2.03;;;;;;;-145.69;100.00;71963.56;5056562;28;20354;-73
2021/12/09 10:54:56;;;;;;;5.93;2.13;;;;;;;-145.69;100.00;71941.69;5072279;28;20205;-73
2021/12/09 10:57:27;;;;;;;5.23;2.20;;;;;;;-145.69;100.00;71953.63;5072550;28;20207;-73
2021/12/09 10:59:55;;;;;;;4.13;1.90;;;;;;;-145.69;100.00;71967.56;5072317;28;20202;-73
2021/12/09 11:02:23;;;;;;;6.33;1.93;;;;;;;-145.69;100.00;71945.66;5072494;28;20573;-73
2021/12/09 11:05:05;;;;;;;3.80;2.73;;;;;;;-145.69;100.00;71941.69;5072487;28;20277;-73
2021/12/09 11:07:32;;;;;;;5.87;2.10;;;;;;;-145.69;100.00;71943.69;5072431;28;20608;-73